Time;durP1;ratioP1;P1;durP2;ratioP2;P2;SDS_P1;SDS_P2;PMS_P1;PMS_P2;Temp;Humidity;BMP_temperature;BMP_pressure;BME280_temperature;BME280_humidity;BME280_pressure;Samples;Min_cycle;Max_cycle;Signal;HPM_P1;HPM_P2
2024/02/26 00:02:17;;;;;;;;;7.33;7.33;;;;;;;;5076948;27;45473;-46
2024/02/26 00:04:42;;;;;;;;;9.67;8.00;;;;;;;;5084109;27;45543;-46
2024/02/26 00:07:07;;;;;;;;;9.33;9.33;;;;;;;;5084046;27;45412;-47
2024/02/26 00:09:36;;;;;;;;;9.67;9.33;;;;;;;;5085637;27;45425;-46
2024/02/26 00:12:01;;;;;;;;;7.67;7.67;;;;;;;;5075776;27;45524;-46
2024/02/26 00:14:26;;;;;;;;;9.33;8.33;;;;;;;;5078860;27;45422;-47
2024/02/26 00:16:52;;;;;;;;;9.67;9.67;;;;;;;;5076056;28;45423;-46
2024/02/26 00:19:17;;;;;;;;;8.67;8.00;;;;;;;;5072523;27;46218;-46
2024/02/26 00:21:42;;;;;;;;;10.33;7.00;;;;;;;;5077351;28;45266;-46
2024/02/26 00:24:07;;;;;;;;;9.00;8.00;;;;;;;;5075770;27;45541;-46
2024/02/26 00:26:32;;;;;;;;;8.67;6.33;;;;;;;;5069244;28;45612;-47
2024/02/26 00:28:58;;;;;;;;;6.00;5.67;;;;;;;;5078498;27;45693;-46
2024/02/26 00:31:23;;;;;;;;;7.00;6.00;;;;;;;;5086259;27;45448;-48
2024/02/26 00:33:48;;;;;;;;;8.00;8.00;;;;;;;;5091151;27;45308;-49
2024/02/26 00:36:13;;;;;;;;;9.33;8.33;;;;;;;;5077817;27;45379;-47
2024/02/26 00:38:40;;;;;;;;;7.67;6.67;;;;;;;;5077772;27;47205;-49
2024/02/26 00:41:05;;;;;;;;;7.00;7.00;;;;;;;;5075445;27;45443;-49
2024/02/26 00:43:30;;;;;;;;;6.33;6.33;;;;;;;;5080869;27;45650;-49
2024/02/26 00:45:55;;;;;;;;;7.00;7.00;;;;;;;;5077850;27;45389;-50
2024/02/26 00:48:21;;;;;;;;;7.00;6.00;;;;;;;;5082049;27;45611;-46
2024/02/26 00:50:46;;;;;;;;;6.33;6.00;;;;;;;;5081302;27;45855;-49
2024/02/26 00:53:11;;;;;;;;;9.00;8.00;;;;;;;;5089488;27;45403;-49
2024/02/26 00:55:36;;;;;;;;;8.67;5.67;;;;;;;;5083022;27;45385;-51
2024/02/26 00:58:01;;;;;;;;;3.33;3.33;;;;;;;;5097782;27;46407;-47
2024/02/26 01:00:27;;;;;;;;;6.00;6.00;;;;;;;;5090990;27;45493;-46
2024/02/26 01:02:52;;;;;;;;;7.00;6.00;;;;;;;;5076633;27;45267;-46
2024/02/26 01:05:17;;;;;;;;;8.33;4.00;;;;;;;;5081122;27;45351;-50
2024/02/26 01:07:42;;;;;;;;;8.00;7.00;;;;;;;;5081593;27;46550;-49
2024/02/26 01:10:08;;;;;;;;;10.33;8.00;;;;;;;;5079580;28;45252;-51
2024/02/26 01:12:34;;;;;;;;;7.33;7.00;;;;;;;;5071202;27;45209;-50
2024/02/26 01:14:59;;;;;;;;;7.67;6.00;;;;;;;;5074535;28;45289;-45
2024/02/26 01:17:24;;;;;;;;;5.00;5.00;;;;;;;;5079681;27;45295;-47
2024/02/26 01:19:49;;;;;;;;;5.33;4.00;;;;;;;;5075291;27;45237;-47
2024/02/26 01:22:15;;;;;;;;;7.00;5.67;;;;;;;;5091480;27;45325;-47
2024/02/26 01:24:40;;;;;;;;;8.33;6.00;;;;;;;;5088645;27;45341;-47
2024/02/26 01:27:06;;;;;;;;;6.33;5.00;;;;;;;;5091106;27;45713;-47
2024/02/26 01:29:31;;;;;;;;;6.33;6.33;;;;;;;;5082425;27;45530;-47
2024/02/26 01:31:56;;;;;;;;;9.00;6.00;;;;;;;;5078934;27;45734;-48
2024/02/26 01:34:21;;;;;;;;;9.00;7.33;;;;;;;;5087826;27;45426;-46
2024/02/26 01:36:47;;;;;;;;;9.00;5.00;;;;;;;;5081125;27;46297;-48
2024/02/26 01:39:12;;;;;;;;;7.00;6.00;;;;;;;;5074750;27;45499;-50
2024/02/26 01:41:38;;;;;;;;;6.67;6.00;;;;;;;;5081463;27;45486;-47
2024/02/26 01:44:03;;;;;;;;;6.33;5.33;;;;;;;;5079262;27;45381;-48
2024/02/26 01:46:29;;;;;;;;;4.67;4.00;;;;;;;;5070768;27;46430;-48
2024/02/26 01:48:55;;;;;;;;;3.67;3.67;;;;;;;;5076844;28;45428;-46
2024/02/26 01:51:20;;;;;;;;;8.67;7.67;;;;;;;;5079288;28;45282;-47
2024/02/26 01:53:45;;;;;;;;;5.33;4.00;;;;;;;;5079774;27;45294;-49
2024/02/26 01:56:12;;;;;;;;;6.00;5.00;;;;;;;;5080506;28;45969;-47
2024/02/26 01:58:37;;;;;;;;;5.00;5.00;;;;;;;;5080241;27;45294;-46
2024/02/26 02:01:02;;;;;;;;;4.67;4.67;;;;;;;;5084082;27;46768;-49
2024/02/26 02:03:28;;;;;;;;;6.67;5.00;;;;;;;;5080565;27;45541;-48
2024/02/26 02:05:53;;;;;;;;;9.00;6.33;;;;;;;;5083388;27;45456;-47
2024/02/26 02:08:19;;;;;;;;;6.67;4.33;;;;;;;;5081750;27;45203;-46
2024/02/26 02:10:47;;;;;;;;;6.33;6.33;;;;;;;;5084253;27;45437;-48
2024/02/26 02:13:12;;;;;;;;;5.00;5.00;;;;;;;;5091338;27;45470;-51
2024/02/26 02:15:37;;;;;;;;;6.33;3.00;;;;;;;;5082157;27;45417;-46
2024/02/26 02:18:03;;;;;;;;;5.67;4.67;;;;;;;;5080898;27;46620;-46
2024/02/26 02:20:33;;;;;;;;;4.00;4.00;;;;;;;;5080063;27;45296;-46
2024/02/26 02:22:58;;;;;;;;;2.67;2.33;;;;;;;;5078964;27;45500;-47
2024/02/26 02:25:23;;;;;;;;;3.00;3.00;;;;;;;;5079416;27;45324;-47
2024/02/26 02:27:48;;;;;;;;;5.00;3.00;;;;;;;;5085616;27;45227;-47
2024/02/26 02:30:15;;;;;;;;;6.33;3.33;;;;;;;;5084264;27;45334;-48
2024/02/26 02:32:43;;;;;;;;;3.67;3.67;;;;;;;;5072571;28;45302;-46
2024/02/26 02:35:08;;;;;;;;;4.00;3.33;;;;;;;;5074957;27;46197;-46
2024/02/26 02:37:33;;;;;;;;;5.67;4.00;;;;;;;;5077132;27;45389;-50
2024/02/26 02:39:58;;;;;;;;;5.67;2.00;;;;;;;;5080096;27;45655;-49
2024/02/26 02:42:24;;;;;;;;;4.00;4.00;;;;;;;;5073872;27;45631;-47
2024/02/26 02:44:49;;;;;;;;;5.00;3.33;;;;;;;;5078126;28;47924;-47
2024/02/26 02:47:14;;;;;;;;;4.33;1.67;;;;;;;;5075263;28;45452;-48
2024/02/26 02:49:39;;;;;;;;;2.00;2.00;;;;;;;;5089309;27;45373;-46
2024/02/26 02:52:05;;;;;;;;;1.33;1.33;;;;;;;;5078093;27;45536;-47
2024/02/26 02:54:30;;;;;;;;;2.00;1.00;;;;;;;;5082406;27;47009;-46
2024/02/26 02:56:55;;;;;;;;;3.00;2.00;;;;;;;;5085017;27;45222;-47
2024/02/26 02:59:20;;;;;;;;;1.67;1.67;;;;;;;;5086721;27;45246;-48
2024/02/26 03:01:46;;;;;;;;;3.67;2.00;;;;;;;;5080185;27;45312;-47
2024/02/26 03:04:11;;;;;;;;;1.00;1.00;;;;;;;;5075650;27;46819;-46
2024/02/26 03:06:36;;;;;;;;;3.00;2.00;;;;;;;;5079225;27;45317;-50
2024/02/26 03:09:01;;;;;;;;;1.67;1.00;;;;;;;;5083572;27;45420;-47
2024/02/26 03:11:27;;;;;;;;;0.33;0.33;;;;;;;;5087153;27;45528;-50
2024/02/26 03:13:52;;;;;;;;;2.67;1.33;;;;;;;;5078560;27;45285;-47
2024/02/26 03:16:17;;;;;;;;;4.00;0.33;;;;;;;;5079404;27;45246;-46
2024/02/26 03:18:42;;;;;;;;;1.67;0.67;;;;;;;;5079439;27;45207;-47
2024/02/26 03:21:07;;;;;;;;;2.33;0.33;;;;;;;;5098274;27;45277;-49
2024/02/26 03:23:36;;;;;;;;;4.00;1.00;;;;;;;;5084602;27;46288;-48
2024/02/26 03:26:02;;;;;;;;;1.67;1.67;;;;;;;;5081410;27;45377;-46
2024/02/26 03:28:27;;;;;;;;;6.00;1.00;;;;;;;;5080068;27;45759;-51
2024/02/26 03:30:52;;;;;;;;;2.00;0.00;;;;;;;;5073394;27;46945;-48
2024/02/26 03:33:17;;;;;;;;;4.00;2.00;;;;;;;;5069015;28;45498;-46
2024/02/26 03:35:43;;;;;;;;;3.33;1.00;;;;;;;;5078728;27;45329;-48
2024/02/26 03:38:08;;;;;;;;;2.33;1.33;;;;;;;;5079035;28;45511;-49
2024/02/26 03:40:33;;;;;;;;;0.33;0.33;;;;;;;;5080592;27;45360;-50
2024/02/26 03:42:58;;;;;;;;;5.00;1.00;;;;;;;;5080823;27;46422;-49
2024/02/26 03:45:23;;;;;;;;;3.00;1.00;;;;;;;;5086939;27;45390;-49
2024/02/26 03:47:48;;;;;;;;;3.33;2.00;;;;;;;;5088781;27;45570;-50
2024/02/26 03:50:14;;;;;;;;;1.33;1.00;;;;;;;;5073466;27;45448;-48
2024/02/26 03:52:39;;;;;;;;;1.00;1.00;;;;;;;;5078589;27;45362;-47
2024/02/26 03:55:04;;;;;;;;;1.67;1.67;;;;;;;;5090207;27;45309;-47
2024/02/26 03:57:30;;;;;;;;;3.00;1.00;;;;;;;;5091422;27;45855;-47
2024/02/26 03:59:55;;;;;;;;;1.33;1.00;;;;;;;;5081495;27;45468;-47
2024/02/26 04:02:22;;;;;;;;;2.00;1.00;;;;;;;;5089952;27;46061;-47
2024/02/26 04:04:47;;;;;;;;;1.00;1.00;;;;;;;;5079029;27;45337;-46
2024/02/26 04:07:13;;;;;;;;;3.00;2.00;;;;;;;;5078419;27;45421;-49
2024/02/26 04:09:38;;;;;;;;;4.33;2.67;;;;;;;;5079931;27;45233;-47
2024/02/26 04:12:03;;;;;;;;;1.67;1.67;;;;;;;;5078737;27;46083;-46
2024/02/26 04:14:29;;;;;;;;;4.00;2.00;;;;;;;;5078252;27;45450;-49
2024/02/26 04:16:54;;;;;;;;;2.33;1.67;;;;;;;;5090866;27;45455;-47
2024/02/26 04:19:19;;;;;;;;;3.67;2.00;;;;;;;;5081724;27;45320;-46
2024/02/26 04:21:45;;;;;;;;;7.00;2.67;;;;;;;;5083527;27;47411;-46
2024/02/26 04:24:10;;;;;;;;;5.33;3.00;;;;;;;;5082384;27;45535;-46
2024/02/26 04:26:36;;;;;;;;;1.00;1.00;;;;;;;;5082116;27;45931;-46
2024/02/26 04:29:02;;;;;;;;;2.33;1.00;;;;;;;;5092864;27;45348;-47
2024/02/26 04:31:27;;;;;;;;;4.00;3.00;;;;;;;;5083636;27;45618;-47
2024/02/26 04:33:52;;;;;;;;;4.00;2.33;;;;;;;;5083564;27;45465;-47
2024/02/26 04:36:17;;;;;;;;;1.00;1.00;;;;;;;;5090884;27;45339;-50
2024/02/26 04:38:43;;;;;;;;;2.33;2.33;;;;;;;;5081803;27;45413;-50
2024/02/26 04:41:08;;;;;;;;;4.00;2.67;;;;;;;;5091811;27;45480;-49
2024/02/26 04:43:34;;;;;;;;;3.67;2.00;;;;;;;;5084840;27;45239;-48
2024/02/26 04:45:59;;;;;;;;;5.00;2.00;;;;;;;;5084279;27;45291;-48
2024/02/26 04:48:24;;;;;;;;;4.00;2.00;;;;;;;;5083323;27;45750;-49
2024/02/26 04:50:49;;;;;;;;;2.67;2.67;;;;;;;;5068196;27;47045;-48
2024/02/26 04:53:14;;;;;;;;;5.00;2.67;;;;;;;;5081454;27;45398;-47
2024/02/26 04:55:40;;;;;;;;;5.00;2.33;;;;;;;;5096016;27;45288;-47
2024/02/26 04:58:05;;;;;;;;;4.33;2.00;;;;;;;;5091733;27;45341;-47
2024/02/26 05:00:30;;;;;;;;;3.67;1.67;;;;;;;;5081117;27;46408;-46
2024/02/26 05:02:55;;;;;;;;;4.33;3.00;;;;;;;;5092208;27;45292;-46
2024/02/26 05:05:20;;;;;;;;;3.33;2.33;;;;;;;;5081255;27;45539;-46
2024/02/26 05:07:45;;;;;;;;;4.33;3.00;;;;;;;;5081655;27;45211;-46
2024/02/26 05:10:11;;;;;;;;;6.67;4.67;;;;;;;;5081859;27;46106;-47
2024/02/26 05:12:36;;;;;;;;;5.33;4.00;;;;;;;;5081654;27;45357;-46
2024/02/26 05:15:02;;;;;;;;;3.67;3.00;;;;;;;;5070805;28;45206;-46
2024/02/26 05:17:27;;;;;;;;;5.67;3.67;;;;;;;;5080350;27;45497;-49
2024/02/26 05:19:52;;;;;;;;;3.67;3.67;;;;;;;;5088942;27;46324;-48
2024/02/26 05:22:17;;;;;;;;;5.00;3.67;;;;;;;;5092780;27;45330;-47
2024/02/26 05:24:43;;;;;;;;;10.00;3.33;;;;;;;;5081761;27;45262;-48
2024/02/26 05:27:08;;;;;;;;;5.00;4.00;;;;;;;;5081381;27;45759;-48
2024/02/26 05:29:33;;;;;;;;;6.00;4.00;;;;;;;;5079346;27;46205;-50
2024/02/26 05:31:58;;;;;;;;;3.00;3.00;;;;;;;;5082044;27;45214;-48
2024/02/26 05:34:23;;;;;;;;;6.67;4.00;;;;;;;;5074061;27;45633;-50
2024/02/26 05:36:48;;;;;;;;;5.00;4.00;;;;;;;;5071203;28;45327;-50
2024/02/26 05:39:14;;;;;;;;;5.00;4.00;;;;;;;;5078011;27;46161;-50
2024/02/26 05:41:42;;;;;;;;;6.00;5.00;;;;;;;;5090802;27;45448;-47
2024/02/26 05:44:09;;;;;;;;;6.33;4.00;;;;;;;;5071571;27;45405;-49
2024/02/26 05:46:34;;;;;;;;;3.67;3.67;;;;;;;;5081765;27;45372;-48
2024/02/26 05:48:59;;;;;;;;;4.33;3.00;;;;;;;;5083565;27;45532;-48
2024/02/26 05:51:25;;;;;;;;;5.33;3.00;;;;;;;;5082341;27;45480;-47
2024/02/26 05:53:53;;;;;;;;;6.67;3.33;;;;;;;;5082816;27;45477;-46
2024/02/26 05:56:19;;;;;;;;;4.00;1.00;;;;;;;;5101149;27;45319;-47
2024/02/26 05:58:44;;;;;;;;;2.00;2.00;;;;;;;;5085407;27;45935;-48
2024/02/26 06:01:09;;;;;;;;;3.33;3.00;;;;;;;;5079957;27;45426;-48
2024/02/26 06:03:34;;;;;;;;;4.00;4.00;;;;;;;;5079892;27;45304;-46
2024/02/26 06:05:59;;;;;;;;;6.00;4.00;;;;;;;;5087606;27;45237;-50
2024/02/26 06:08:25;;;;;;;;;4.67;2.67;;;;;;;;5087358;27;48205;-47
2024/02/26 06:10:50;;;;;;;;;5.00;4.33;;;;;;;;5081879;27;45322;-48
2024/02/26 06:13:15;;;;;;;;;6.00;4.00;;;;;;;;5078737;27;45408;-47
2024/02/26 06:15:40;;;;;;;;;4.00;3.00;;;;;;;;5080503;27;45152;-48
2024/02/26 06:18:05;;;;;;;;;4.33;2.67;;;;;;;;5079058;27;45595;-47
2024/02/26 06:20:30;;;;;;;;;9.00;5.00;;;;;;;;5082254;27;45381;-48
2024/02/26 06:22:56;;;;;;;;;4.00;4.00;;;;;;;;5079847;27;45475;-48
2024/02/26 06:25:21;;;;;;;;;8.67;5.00;;;;;;;;5079803;27;45418;-48
2024/02/26 06:27:46;;;;;;;;;3.00;3.00;;;;;;;;5078893;27;45471;-47
2024/02/26 06:30:11;;;;;;;;;4.00;2.67;;;;;;;;5079119;27;45842;-47
2024/02/26 06:32:37;;;;;;;;;5.00;4.33;;;;;;;;5080287;27;45342;-46
2024/02/26 06:35:06;;;;;;;;;3.33;3.00;;;;;;;;5079942;28;45302;-50
2024/02/26 06:37:31;;;;;;;;;8.00;3.00;;;;;;;;5078872;27;46343;-47
2024/02/26 06:39:57;;;;;;;;;3.67;3.67;;;;;;;;5078110;27;45488;-50
2024/02/26 06:42:22;;;;;;;;;6.67;4.33;;;;;;;;5076864;27;45335;-48
2024/02/26 06:44:47;;;;;;;;;4.00;4.00;;;;;;;;5079361;27;45270;-49
2024/02/26 06:47:12;;;;;;;;;3.67;3.00;;;;;;;;5079319;27;46148;-48
2024/02/26 06:49:38;;;;;;;;;5.33;3.00;;;;;;;;5080105;28;45351;-49
2024/02/26 06:52:04;;;;;;;;;5.67;5.67;;;;;;;;5078708;27;46776;-46
2024/02/26 06:54:29;;;;;;;;;6.00;4.00;;;;;;;;5079532;27;45459;-50
2024/02/26 06:56:54;;;;;;;;;6.00;4.00;;;;;;;;5079478;27;46713;-47
2024/02/26 06:59:20;;;;;;;;;8.00;5.00;;;;;;;;5078426;28;45251;-47
2024/02/26 07:01:45;;;;;;;;;7.33;6.00;;;;;;;;5078875;28;45405;-47
2024/02/26 07:04:10;;;;;;;;;9.00;4.33;;;;;;;;5077884;28;45242;-47
2024/02/26 07:06:36;;;;;;;;;6.00;5.00;;;;;;;;5079523;27;46399;-48
2024/02/26 07:09:01;;;;;;;;;4.67;4.00;;;;;;;;5077383;27;45552;-45
2024/02/26 07:11:26;;;;;;;;;4.33;4.33;;;;;;;;5079305;27;45307;-47
2024/02/26 07:13:51;;;;;;;;;5.33;4.33;;;;;;;;5078926;27;45388;-50
2024/02/26 07:16:17;;;;;;;;;4.67;4.67;;;;;;;;5078088;27;46446;-50
2024/02/26 07:18:43;;;;;;;;;6.33;4.33;;;;;;;;5078855;27;45374;-47
2024/02/26 07:21:08;;;;;;;;;5.67;4.33;;;;;;;;5078654;27;45395;-47
2024/02/26 07:23:33;;;;;;;;;9.33;6.00;;;;;;;;5077995;28;45443;-48
2024/02/26 07:25:58;;;;;;;;;6.33;5.00;;;;;;;;5078673;27;45479;-50
2024/02/26 07:28:24;;;;;;;;;7.00;5.67;;;;;;;;5077580;27;45386;-45
2024/02/26 07:30:49;;;;;;;;;5.00;4.33;;;;;;;;5079668;27;45279;-49
2024/02/26 07:33:15;;;;;;;;;7.00;5.33;;;;;;;;5075135;27;45442;-46
2024/02/26 07:35:40;;;;;;;;;4.33;4.33;;;;;;;;5070674;27;45683;-48
2024/02/26 07:38:05;;;;;;;;;9.00;4.00;;;;;;;;5078798;27;45373;-47
2024/02/26 07:40:30;;;;;;;;;7.00;4.00;;;;;;;;5075703;27;45309;-47
2024/02/26 07:42:56;;;;;;;;;7.00;7.00;;;;;;;;5079572;27;45255;-47
2024/02/26 07:45:21;;;;;;;;;5.00;5.00;;;;;;;;5074541;27;45357;-45
2024/02/26 07:47:46;;;;;;;;;4.00;4.00;;;;;;;;5078990;28;45311;-48
2024/02/26 07:50:12;;;;;;;;;6.67;4.00;;;;;;;;5077526;27;45226;-48
2024/02/26 07:52:37;;;;;;;;;4.67;4.00;;;;;;;;5079224;27;45312;-45
2024/02/26 07:55:03;;;;;;;;;8.00;5.00;;;;;;;;5076745;27;45923;-47
2024/02/26 07:57:28;;;;;;;;;6.67;6.00;;;;;;;;5079398;27;45291;-48
2024/02/26 07:59:53;;;;;;;;;3.67;3.67;;;;;;;;5078132;27;45365;-46
2024/02/26 08:02:18;;;;;;;;;5.00;4.00;;;;;;;;5077565;27;45526;-48
2024/02/26 08:04:43;;;;;;;;;4.00;4.00;;;;;;;;5077558;27;46317;-46
2024/02/26 08:07:09;;;;;;;;;6.00;6.00;;;;;;;;5078839;27;45274;-45
2024/02/26 08:09:34;;;;;;;;;2.33;1.00;;;;;;;;5077987;27;45578;-45
2024/02/26 08:11:59;;;;;;;;;6.67;5.00;;;;;;;;5079001;27;45272;-46
2024/02/26 08:14:24;;;;;;;;;3.67;3.67;;;;;;;;5078372;27;45673;-46
2024/02/26 08:16:49;;;;;;;;;4.00;4.00;;;;;;;;5079284;27;45376;-46
2024/02/26 08:19:15;;;;;;;;;4.33;4.33;;;;;;;;5074281;28;45309;-46
2024/02/26 08:21:41;;;;;;;;;3.00;3.00;;;;;;;;5077607;27;45228;-44
2024/02/26 08:24:06;;;;;;;;;5.67;4.67;;;;;;;;5076988;28;46311;-45
2024/02/26 08:26:31;;;;;;;;;5.00;3.67;;;;;;;;5077125;27;45373;-47
2024/02/26 08:28:58;;;;;;;;;5.33;4.33;;;;;;;;5075312;27;45333;-46
2024/02/26 08:31:23;;;;;;;;;6.00;4.67;;;;;;;;5078346;27;45346;-45
2024/02/26 08:33:48;;;;;;;;;5.00;5.00;;;;;;;;5072886;28;48040;-48
2024/02/26 08:36:14;;;;;;;;;4.00;4.00;;;;;;;;5077417;27;45372;-47
2024/02/26 08:38:39;;;;;;;;;7.00;4.00;;;;;;;;5091835;27;45758;-46
2024/02/26 08:41:04;;;;;;;;;7.00;5.00;;;;;;;;5089477;27;45315;-48
2024/02/26 08:43:29;;;;;;;;;7.33;6.00;;;;;;;;5091321;27;46302;-45
2024/02/26 08:45:54;;;;;;;;;7.00;5.00;;;;;;;;5088121;27;45206;-47
2024/02/26 08:48:19;;;;;;;;;5.67;4.00;;;;;;;;5090704;27;45539;-45
2024/02/26 08:50:45;;;;;;;;;7.33;4.33;;;;;;;;5089542;27;45466;-45
2024/02/26 08:53:10;;;;;;;;;4.00;4.00;;;;;;;;5091050;27;46039;-45
2024/02/26 08:55:35;;;;;;;;;5.00;5.00;;;;;;;;5089649;27;45444;-46
2024/02/26 08:58:00;;;;;;;;;8.33;5.33;;;;;;;;5091803;27;45360;-45
2024/02/26 09:00:25;;;;;;;;;10.33;8.67;;;;;;;;5089345;27;45368;-45
2024/02/26 09:02:51;;;;;;;;;6.67;5.33;;;;;;;;5084760;27;45279;-45
2024/02/26 09:05:16;;;;;;;;;6.33;5.33;;;;;;;;5092508;27;45410;-46
2024/02/26 09:07:41;;;;;;;;;8.67;5.00;;;;;;;;5095301;27;45276;-49
2024/02/26 09:10:10;;;;;;;;;7.33;6.67;;;;;;;;5091609;27;45214;-46
2024/02/26 09:12:35;;;;;;;;;10.00;4.00;;;;;;;;5093092;27;47975;-47
2024/02/26 09:15:00;;;;;;;;;7.00;5.67;;;;;;;;5093475;27;45226;-47
2024/02/26 09:17:25;;;;;;;;;6.00;5.00;;;;;;;;5094945;27;45577;-48
2024/02/26 09:19:50;;;;;;;;;8.00;5.67;;;;;;;;5094057;27;45394;-46
2024/02/26 09:22:16;;;;;;;;;4.00;4.00;;;;;;;;5088621;27;45444;-46
2024/02/26 09:24:41;;;;;;;;;5.00;4.00;;;;;;;;5094174;27;45353;-46
2024/02/26 09:27:06;;;;;;;;;8.00;5.67;;;;;;;;5094956;27;45270;-49
2024/02/26 09:29:32;;;;;;;;;6.33;6.33;;;;;;;;5093826;27;45356;-49
2024/02/26 09:31:58;;;;;;;;;5.67;5.67;;;;;;;;5094827;27;46190;-45
2024/02/26 09:34:23;;;;;;;;;4.33;3.33;;;;;;;;5076109;28;45319;-46
2024/02/26 09:36:49;;;;;;;;;5.67;4.00;;;;;;;;5072709;28;45580;-49
2024/02/26 09:39:20;;;;;;;;;3.33;3.33;;;;;;;;5084606;27;45254;-46
2024/02/26 09:41:45;;;;;;;;;5.00;3.33;;;;;;;;5095941;27;46428;-46
2024/02/26 09:44:11;;;;;;;;;4.00;3.00;;;;;;;;5089494;27;45736;-47
2024/02/26 09:46:37;;;;;;;;;4.00;3.00;;;;;;;;5094922;27;45545;-49
2024/02/26 09:49:02;;;;;;;;;5.00;3.67;;;;;;;;5090737;27;45413;-45
2024/02/26 09:51:28;;;;;;;;;4.33;3.00;;;;;;;;5096454;27;46220;-47
2024/02/26 09:53:54;;;;;;;;;6.00;4.00;;;;;;;;5091684;27;45381;-47
2024/02/26 09:56:20;;;;;;;;;4.00;1.33;;;;;;;;5096060;27;45561;-48
2024/02/26 09:58:48;;;;;;;;;4.33;2.00;;;;;;;;5091861;27;45379;-45
2024/02/26 10:01:16;;;;;;;;;5.33;5.33;;;;;;;;5094863;27;46115;-45
2024/02/26 10:03:43;;;;;;;;;4.67;4.00;;;;;;;;5081981;27;45339;-45
2024/02/26 10:06:09;;;;;;;;;3.33;3.33;;;;;;;;5073974;28;45287;-45
2024/02/26 10:08:35;;;;;;;;;4.00;4.00;;;;;;;;5073734;27;45578;-46
2024/02/26 10:11:00;;;;;;;;;7.00;4.00;;;;;;;;5080659;27;46262;-45
2024/02/26 10:13:25;;;;;;;;;4.67;3.33;;;;;;;;5073762;28;45402;-45
2024/02/26 10:15:50;;;;;;;;;4.00;4.00;;;;;;;;5073249;27;45544;-47
2024/02/26 10:18:15;;;;;;;;;4.67;4.67;;;;;;;;5079252;28;45509;-46
2024/02/26 10:20:41;;;;;;;;;2.67;2.00;;;;;;;;5066049;28;46778;-47
2024/02/26 10:23:06;;;;;;;;;3.00;3.00;;;;;;;;5079295;28;45419;-47
2024/02/26 10:25:31;;;;;;;;;7.00;3.00;;;;;;;;5072087;28;45352;-45
2024/02/26 10:28:02;;;;;;;;;2.00;2.00;;;;;;;;5072043;27;45345;-45
2024/02/26 10:30:27;;;;;;;;;3.00;1.33;;;;;;;;5073554;28;46114;-46
2024/02/26 10:32:52;;;;;;;;;0.00;0.00;;;;;;;;5071702;27;45299;-45
2024/02/26 10:35:20;;;;;;;;;1.00;1.00;;;;;;;;5079681;28;45335;-49
2024/02/26 10:37:46;;;;;;;;;3.00;3.00;;;;;;;;5080279;27;45413;-47
2024/02/26 10:40:12;;;;;;;;;4.00;2.00;;;;;;;;5078251;28;47951;-47
2024/02/26 10:42:38;;;;;;;;;4.33;2.33;;;;;;;;5071888;27;45234;-45
2024/02/26 10:45:04;;;;;;;;;2.00;2.00;;;;;;;;5079671;27;45601;-48
2024/02/26 10:47:30;;;;;;;;;3.67;3.00;;;;;;;;5069684;27;45252;-47
2024/02/26 10:49:56;;;;;;;;;5.00;4.00;;;;;;;;5065236;28;46300;-46
2024/02/26 10:52:22;;;;;;;;;6.33;6.00;;;;;;;;5069202;27;45202;-48
2024/02/26 10:54:50;;;;;;;;;6.00;5.00;;;;;;;;5072974;28;45344;-46
2024/02/26 10:57:15;;;;;;;;;5.00;5.00;;;;;;;;5079649;28;45552;-46
2024/02/26 10:59:42;;;;;;;;;5.33;5.33;;;;;;;;5079916;27;46088;-48
2024/02/26 11:02:08;;;;;;;;;6.33;3.00;;;;;;;;5077620;27;45293;-49
2024/02/26 11:04:34;;;;;;;;;4.00;4.00;;;;;;;;5071145;27;45340;-46
2024/02/26 11:07:01;;;;;;;;;1.67;1.67;;;;;;;;5078990;27;45282;-47
2024/02/26 11:09:26;;;;;;;;;0.00;0.00;;;;;;;;5079120;27;45790;-47
2024/02/26 11:11:54;;;;;;;;;0.00;0.00;;;;;;;;5088730;27;45468;-49
2024/02/26 11:14:20;;;;;;;;;0.00;0.00;;;;;;;;5079105;27;45330;-48
2024/02/26 11:16:46;;;;;;;;;1.33;0.67;;;;;;;;5089396;27;45587;-48
2024/02/26 11:19:13;;;;;;;;;0.00;0.00;;;;;;;;5083777;27;45602;-45
2024/02/26 11:21:40;;;;;;;;;0.00;0.00;;;;;;;;5088715;27;45473;-48
2024/02/26 11:24:06;;;;;;;;;0.00;0.00;;;;;;;;5083111;27;45364;-48
2024/02/26 11:26:33;;;;;;;;;0.00;0.00;;;;;;;;5089205;27;45429;-47
2024/02/26 11:28:58;;;;;;;;;0.00;0.00;;;;;;;;5084616;27;45366;-46
2024/02/26 11:31:27;;;;;;;;;0.00;0.00;;;;;;;;5089810;27;45400;-49
2024/02/26 11:33:53;;;;;;;;;0.00;0.00;;;;;;;;5084869;27;45404;-49
2024/02/26 11:36:19;;;;;;;;;0.00;0.00;;;;;;;;5079144;27;45194;-46
2024/02/26 11:38:48;;;;;;;;;0.00;0.00;;;;;;;;5084554;27;46054;-45
2024/02/26 11:41:14;;;;;;;;;0.67;0.00;;;;;;;;5089218;27;45447;-45
2024/02/26 11:44:00;;;;;;;;;0.00;0.00;;;;;;;;5085450;27;45541;-47
2024/02/26 11:46:26;;;;;;;;;1.00;0.00;;;;;;;;5086177;27;45605;-45
2024/02/26 11:48:51;;;;;;;;;0.00;0.00;;;;;;;;5087803;27;46930;-47
2024/02/26 11:51:16;;;;;;;;;0.00;0.00;;;;;;;;5086139;27;45727;-48
2024/02/26 11:53:48;;;;;;;;;0.00;0.00;;;;;;;;5086560;27;45426;-47
2024/02/26 11:56:19;;;;;;;;;0.00;0.00;;;;;;;;5084695;27;45329;-45
2024/02/26 11:58:44;;;;;;;;;0.00;0.00;;;;;;;;5086711;27;46120;-45
2024/02/26 12:01:28;;;;;;;;;0.33;0.00;;;;;;;;5068696;27;45246;-46
2024/02/26 12:03:54;;;;;;;;;1.00;1.00;;;;;;;;5079482;27;45507;-49
2024/02/26 12:06:19;;;;;;;;;0.00;0.00;;;;;;;;5075552;27;45395;-48
2024/02/26 12:08:45;;;;;;;;;0.00;0.00;;;;;;;;5088725;27;48259;-45
2024/02/26 12:11:16;;;;;;;;;0.67;0.67;;;;;;;;5083045;27;46229;-45
2024/02/26 12:13:41;;;;;;;;;2.00;1.00;;;;;;;;5090642;27;45528;-48
2024/02/26 12:16:07;;;;;;;;;0.00;0.00;;;;;;;;5084464;27;45446;-46
2024/02/26 12:18:34;;;;;;;;;1.67;0.67;;;;;;;;5088807;27;46592;-46
2024/02/26 12:21:01;;;;;;;;;1.00;1.00;;;;;;;;5085287;27;45346;-48
2024/02/26 12:23:27;;;;;;;;;1.00;0.00;;;;;;;;5080780;27;45436;-49
2024/02/26 12:25:52;;;;;;;;;2.00;0.00;;;;;;;;5082165;27;45551;-49
2024/02/26 12:28:17;;;;;;;;;0.00;0.00;;;;;;;;5089051;27;46347;-49
2024/02/26 12:30:42;;;;;;;;;0.00;0.00;;;;;;;;5085559;27;45438;-49
2024/02/26 12:33:08;;;;;;;;;0.67;0.67;;;;;;;;5089101;27;45690;-49
2024/02/26 12:35:34;;;;;;;;;0.00;0.00;;;;;;;;5085455;27;45306;-49
2024/02/26 12:38:00;;;;;;;;;0.67;0.67;;;;;;;;5089411;27;46407;-48
2024/02/26 12:40:26;;;;;;;;;0.00;0.00;;;;;;;;5088678;27;45300;-49
2024/02/26 12:42:54;;;;;;;;;0.00;0.00;;;;;;;;5092686;27;45453;-47
2024/02/26 12:45:20;;;;;;;;;0.00;0.00;;;;;;;;5089491;27;45452;-47
2024/02/26 12:47:46;;;;;;;;;3.00;0.00;;;;;;;;5091717;27;45993;-45
2024/02/26 12:50:11;;;;;;;;;0.00;0.00;;;;;;;;5089891;27;45699;-49
2024/02/26 12:52:39;;;;;;;;;1.00;1.00;;;;;;;;5092458;27;45493;-45
2024/02/26 12:55:05;;;;;;;;;0.67;0.67;;;;;;;;5090764;27;45527;-46
2024/02/26 12:57:31;;;;;;;;;0.00;0.00;;;;;;;;5091704;27;47103;-48
2024/02/26 12:59:57;;;;;;;;;0.33;0.33;;;;;;;;5090795;27;45342;-46
2024/02/26 13:02:22;;;;;;;;;0.33;0.33;;;;;;;;5076200;27;45214;-50
2024/02/26 13:04:48;;;;;;;;;1.00;1.00;;;;;;;;5090939;27;45229;-48
2024/02/26 13:07:13;;;;;;;;;1.00;1.00;;;;;;;;5088119;27;45815;-49
2024/02/26 13:09:39;;;;;;;;;1.00;1.00;;;;;;;;5089047;27;45341;-50
2024/02/26 13:12:06;;;;;;;;;1.00;1.00;;;;;;;;5095167;27;45583;-50
2024/02/26 13:14:31;;;;;;;;;1.00;1.00;;;;;;;;5088777;27;45172;-49
2024/02/26 13:16:57;;;;;;;;;2.00;1.00;;;;;;;;5084617;27;46804;-49
2024/02/26 13:19:22;;;;;;;;;0.00;0.00;;;;;;;;5086580;27;45390;-49
2024/02/26 13:21:47;;;;;;;;;2.67;1.00;;;;;;;;5075125;27;45379;-49
2024/02/26 13:24:13;;;;;;;;;1.00;1.00;;;;;;;;5084207;27;45635;-46
2024/02/26 13:26:38;;;;;;;;;0.33;0.33;;;;;;;;5095595;27;45406;-46
2024/02/26 13:29:04;;;;;;;;;3.00;1.33;;;;;;;;5089040;27;45279;-46
2024/02/26 13:31:29;;;;;;;;;1.00;1.00;;;;;;;;5089082;27;45376;-46
2024/02/26 13:33:55;;;;;;;;;0.00;0.00;;;;;;;;5084659;27;45851;-46
2024/02/26 13:36:21;;;;;;;;;1.00;1.00;;;;;;;;5082690;27;45321;-46
2024/02/26 13:38:54;;;;;;;;;0.67;0.67;;;;;;;;5077849;27;45262;-45
2024/02/26 13:41:19;;;;;;;;;1.00;1.00;;;;;;;;5073284;27;45342;-49
2024/02/26 13:43:44;;;;;;;;;0.67;0.67;;;;;;;;5081606;27;45506;-46
2024/02/26 13:46:10;;;;;;;;;2.00;1.00;;;;;;;;5081355;27;46343;-45
2024/02/26 13:48:36;;;;;;;;;0.33;0.33;;;;;;;;5081347;27;45306;-44
2024/02/26 13:51:01;;;;;;;;;1.00;1.00;;;;;;;;5079805;27;45337;-46
2024/02/26 13:53:26;;;;;;;;;1.00;1.00;;;;;;;;5082028;27;45417;-45
2024/02/26 13:55:51;;;;;;;;;2.00;2.00;;;;;;;;5081764;27;45464;-45
2024/02/26 13:58:22;;;;;;;;;3.67;1.33;;;;;;;;5081590;27;45452;-45
2024/02/26 14:00:47;;;;;;;;;1.00;1.00;;;;;;;;5082087;27;45310;-49
2024/02/26 14:03:13;;;;;;;;;0.00;0.00;;;;;;;;5081616;27;45427;-46
2024/02/26 14:05:38;;;;;;;;;1.33;1.00;;;;;;;;5081584;27;45434;-46
2024/02/26 14:08:03;;;;;;;;;1.33;1.00;;;;;;;;5081570;27;45369;-45
2024/02/26 14:10:30;;;;;;;;;1.00;1.00;;;;;;;;5083060;27;45395;-48
2024/02/26 14:12:55;;;;;;;;;0.00;0.00;;;;;;;;5082535;27;45413;-48
2024/02/26 14:15:20;;;;;;;;;0.00;0.00;;;;;;;;5082028;27;47091;-48
2024/02/26 14:17:52;;;;;;;;;3.33;1.00;;;;;;;;5082273;27;45324;-47
2024/02/26 14:20:18;;;;;;;;;0.67;0.67;;;;;;;;5069823;27;45663;-48
2024/02/26 14:22:43;;;;;;;;;1.00;1.00;;;;;;;;5083649;27;45336;-48
2024/02/26 14:25:09;;;;;;;;;1.00;1.00;;;;;;;;5081940;27;45580;-49
2024/02/26 14:27:34;;;;;;;;;2.00;2.00;;;;;;;;5082164;27;45863;-47
2024/02/26 14:29:59;;;;;;;;;2.00;2.00;;;;;;;;5062679;27;45432;-48
2024/02/26 14:32:24;;;;;;;;;2.00;1.67;;;;;;;;5063218;27;45530;-46
2024/02/26 14:34:50;;;;;;;;;1.67;1.67;;;;;;;;5080426;27;45329;-49